createdAt,value
2022-07-26T00:02:05.419Z,59.08
2022-07-26T00:04:33.808Z,48.50
2022-07-26T00:07:02.221Z,49.08
2022-07-26T00:09:30.538Z,45.22
2022-07-26T00:11:58.848Z,46.53
2022-07-26T00:14:29.388Z,45.92
2022-07-26T00:16:58.015Z,53.05
2022-07-26T00:19:26.216Z,52.75
2022-07-26T00:21:54.477Z,52.38
2022-07-26T00:24:22.870Z,50.95
2022-07-26T00:26:51.135Z,48.08
2022-07-26T00:29:19.479Z,47.10
2022-07-26T00:31:47.791Z,49.50
2022-07-26T00:34:16.290Z,48.47
2022-07-26T00:36:45.204Z,48.78
2022-07-26T00:39:13.440Z,46.67
2022-07-26T00:41:41.748Z,47.10
2022-07-26T00:44:10.042Z,45.55
2022-07-26T00:46:38.302Z,44.53
2022-07-26T00:49:06.934Z,40.75
2022-07-26T00:51:35.354Z,40.88
2022-07-26T00:54:04.819Z,41.20
2022-07-26T00:56:36.432Z,39.10
2022-07-26T00:59:05.126Z,38.88
2022-07-26T01:01:33.781Z,39.45
2022-07-26T01:04:02.298Z,40.20
2022-07-26T01:06:30.658Z,39.13
2022-07-26T01:08:59.032Z,37.95
2022-07-26T01:11:27.319Z,38.85
2022-07-26T01:13:55.585Z,42.05
2022-07-26T01:16:24.611Z,38.78
2022-07-26T01:18:53.286Z,40.70
2022-07-26T01:21:22.022Z,40.13
2022-07-26T01:23:50.257Z,39.80
2022-07-26T01:26:18.474Z,41.25
2022-07-26T01:28:47.347Z,41.92
2022-07-26T01:31:16.250Z,45.05
2022-07-26T01:33:44.551Z,42.60
2022-07-26T01:36:12.836Z,45.25
2022-07-26T01:38:42.462Z,46.47
2022-07-26T01:41:10.731Z,45.95
2022-07-26T01:43:39.023Z,45.40
2022-07-26T01:46:09.870Z,49.13
2022-07-26T01:48:38.524Z,45.42
2022-07-26T01:51:07.228Z,46.95
2022-07-26T01:53:35.517Z,45.65
2022-07-26T01:56:03.775Z,40.80
2022-07-26T01:58:36.291Z,41.55
2022-07-26T02:01:04.742Z,39.65
2022-07-26T02:03:32.980Z,40.13
2022-07-26T02:06:01.372Z,38.08
2022-07-26T02:08:29.737Z,39.38
2022-07-26T02:10:57.957Z,35.50
2022-07-26T02:13:26.320Z,40.42
2022-07-26T02:15:54.674Z,37.75
2022-07-26T02:18:22.933Z,35.67
2022-07-26T02:20:51.047Z,39.45
2022-07-26T02:23:19.581Z,41.67
2022-07-26T02:25:47.976Z,39.10
2022-07-26T02:28:16.997Z,39.33
2022-07-26T02:30:47.032Z,38.10
2022-07-26T02:33:15.939Z,39.17
2022-07-26T02:35:44.918Z,38.05
2022-07-26T02:38:16.573Z,35.35
2022-07-26T02:40:45.134Z,34.72
2022-07-26T02:43:13.369Z,32.83
2022-07-26T02:45:41.710Z,33.72
2022-07-26T02:48:25.451Z,33.17
2022-07-26T02:50:53.799Z,32.85
2022-07-26T02:53:21.941Z,32.13
2022-07-26T02:55:50.196Z,30.45
2022-07-26T02:58:18.631Z,30.35
2022-07-26T03:00:46.873Z,31.85
2022-07-26T03:03:15.263Z,30.88
2022-07-26T03:05:43.628Z,30.58
2022-07-26T03:08:11.878Z,31.95
2022-07-26T03:10:41.583Z,31.70
2022-07-26T03:13:09.722Z,29.67
2022-07-26T03:15:38.255Z,32.10
2022-07-26T03:18:06.485Z,32.47
2022-07-26T03:20:34.723Z,32.60
2022-07-26T03:23:03.036Z,32.35
2022-07-26T03:25:31.397Z,32.58
2022-07-26T03:27:59.701Z,36.05
2022-07-26T03:30:27.947Z,39.95
2022-07-26T03:32:56.298Z,41.58
2022-07-26T03:35:24.418Z,39.67
2022-07-26T03:37:53.380Z,43.53
2022-07-26T03:40:21.913Z,37.33
2022-07-26T03:42:50.260Z,37.92
2022-07-26T03:45:18.553Z,36.00
2022-07-26T03:47:46.783Z,33.38
2022-07-26T03:50:15.003Z,33.70
2022-07-26T03:52:43.245Z,33.63
2022-07-26T03:55:11.986Z,31.52
2022-07-26T03:57:40.207Z,32.97
2022-07-26T04:00:09.170Z,32.08
2022-07-26T04:02:37.463Z,32.08
2022-07-26T04:05:07.007Z,31.45
2022-07-26T04:07:42.886Z,31.85
2022-07-26T04:10:12.223Z,32.28
2022-07-26T04:12:40.449Z,30.55
2022-07-26T04:15:09.165Z,29.17
2022-07-26T04:17:41.693Z,29.35
2022-07-26T04:20:12.254Z,29.70
2022-07-26T04:22:41.271Z,31.25
2022-07-26T04:25:10.761Z,32.97
2022-07-26T04:27:39.357Z,32.47
2022-07-26T04:30:14.049Z,35.20
2022-07-26T04:32:43.525Z,36.55
2022-07-26T04:35:14.403Z,34.50
2022-07-26T04:37:43.459Z,37.60
2022-07-26T04:40:16.805Z,36.05
2022-07-26T04:42:45.129Z,35.92
2022-07-26T04:45:13.972Z,34.97
2022-07-26T04:47:47.161Z,38.75
2022-07-26T04:50:19.199Z,39.78
2022-07-26T04:52:48.949Z,38.15
2022-07-26T04:55:17.804Z,38.67
2022-07-26T04:57:47.564Z,38.13
2022-07-26T05:00:23.453Z,38.30
2022-07-26T05:02:54.616Z,37.28
2022-07-26T05:05:24.149Z,36.75
2022-07-26T05:07:55.500Z,33.88
2022-07-26T05:10:28.988Z,34.60
2022-07-26T05:12:57.307Z,28.85
2022-07-26T05:15:25.920Z,28.30
2022-07-26T05:18:07.055Z,28.65
2022-07-26T05:20:36.149Z,28.38
2022-07-26T05:23:04.495Z,27.13
2022-07-26T05:25:32.751Z,25.38
2022-07-26T05:28:01.004Z,26.98
2022-07-26T05:30:29.795Z,27.05
2022-07-26T05:32:58.025Z,25.85
2022-07-26T05:35:26.432Z,25.08
2022-07-26T05:37:55.015Z,26.42
2022-07-26T05:40:23.478Z,25.50
2022-07-26T05:42:51.753Z,28.15
2022-07-26T05:45:20.052Z,28.27
2022-07-26T05:47:51.882Z,27.05
2022-07-26T05:50:20.885Z,27.05
2022-07-26T05:52:49.327Z,26.60
2022-07-26T05:55:17.565Z,26.27
2022-07-26T05:57:45.935Z,25.92
2022-07-26T06:00:15.639Z,26.92
2022-07-26T06:02:44.147Z,27.23
2022-07-26T06:05:12.356Z,27.08
2022-07-26T06:07:40.648Z,26.92
2022-07-26T06:10:09.524Z,26.30
2022-07-26T06:12:37.665Z,27.45
2022-07-26T06:15:15.267Z,28.30
2022-07-26T06:17:44.435Z,27.10
2022-07-26T06:20:13.027Z,28.02
2022-07-26T06:22:41.399Z,25.65
2022-07-26T06:25:09.909Z,26.08
2022-07-26T06:27:38.165Z,24.80
2022-07-26T06:30:08.122Z,24.70
2022-07-26T06:32:36.425Z,26.15
2022-07-26T06:35:04.941Z,24.77
2022-07-26T06:37:36.182Z,26.67
2022-07-26T06:40:07.402Z,26.75
2022-07-26T06:42:36.377Z,29.80
2022-07-26T06:45:05.447Z,33.15
2022-07-26T06:47:33.914Z,33.63
2022-07-26T06:50:03.351Z,29.08
2022-07-26T06:52:31.690Z,27.75
2022-07-26T06:55:00.728Z,28.25
2022-07-26T06:57:29.014Z,27.65
2022-07-26T06:59:57.465Z,27.67
2022-07-26T07:02:25.696Z,26.25
2022-07-26T07:04:53.937Z,24.88
2022-07-26T07:07:22.405Z,26.80
2022-07-26T07:09:51.357Z,24.77
2022-07-26T07:12:20.039Z,25.30
2022-07-26T07:14:48.541Z,25.55
2022-07-26T07:17:20.483Z,26.42
2022-07-26T07:19:49.186Z,25.83
2022-07-26T07:22:17.487Z,24.60
2022-07-26T07:24:46.653Z,23.35
2022-07-26T07:27:16.117Z,24.40
2022-07-26T07:29:44.807Z,23.48
2022-07-26T07:32:17.999Z,29.10
2022-07-26T07:34:50.616Z,30.73
2022-07-26T07:37:20.410Z,31.17
2022-07-26T07:39:50.599Z,29.67
2022-07-26T07:42:19.912Z,29.15
2022-07-26T07:44:48.520Z,29.23
2022-07-26T07:47:16.904Z,29.40
2022-07-26T07:49:45.229Z,27.98
2022-07-26T07:52:13.450Z,26.00
2022-07-26T07:54:42.205Z,26.25
2022-07-26T07:57:10.734Z,24.58
2022-07-26T07:59:39.525Z,24.27
2022-07-26T08:02:08.247Z,24.23
2022-07-26T08:04:36.696Z,25.83
2022-07-26T08:07:05.174Z,27.20
2022-07-26T08:09:34.053Z,27.83
2022-07-26T08:12:02.949Z,26.40
2022-07-26T08:14:31.542Z,28.65
2022-07-26T08:16:59.878Z,27.27
2022-07-26T08:19:42.034Z,30.20
2022-07-26T08:22:11.504Z,29.55
2022-07-26T08:24:39.979Z,30.00
2022-07-26T08:27:08.472Z,31.60
2022-07-26T08:29:36.805Z,31.90
2022-07-26T08:32:05.553Z,30.73
2022-07-26T08:34:34.046Z,30.90
2022-07-26T08:37:18.357Z,32.55
2022-07-26T08:39:48.610Z,31.40
2022-07-26T08:42:23.325Z,31.75
2022-07-26T08:44:52.230Z,31.27
2022-07-26T08:47:37.722Z,34.35
2022-07-26T08:50:10.597Z,35.38
2022-07-26T08:52:42.852Z,32.97
2022-07-26T08:55:16.235Z,31.90
2022-07-26T08:57:44.808Z,32.22
2022-07-26T09:00:23.848Z,29.92
2022-07-26T09:02:54.186Z,30.50
2022-07-26T09:05:29.457Z,32.85
2022-07-26T09:07:58.955Z,33.30
2022-07-26T09:10:28.467Z,32.35
2022-07-26T09:12:59.928Z,30.35
2022-07-26T09:15:29.302Z,30.33
2022-07-26T09:17:58.544Z,30.95
2022-07-26T09:20:29.928Z,31.50
2022-07-26T09:23:11.288Z,31.13
2022-07-26T09:25:41.826Z,32.70
2022-07-26T09:28:27.624Z,30.92
2022-07-26T09:31:06.267Z,30.20
2022-07-26T09:33:49.162Z,30.98
2022-07-26T09:36:18.729Z,31.77
2022-07-26T09:38:50.156Z,29.63
2022-07-26T09:41:38.487Z,31.38
2022-07-26T09:44:20.409Z,28.88
2022-07-26T09:46:59.706Z,27.40
2022-07-26T09:49:40.188Z,27.90
2022-07-26T09:52:21.376Z,29.30
2022-07-26T09:54:50.399Z,28.55
2022-07-26T09:57:22.434Z,28.33
2022-07-26T09:59:50.732Z,26.83
2022-07-26T10:02:19.053Z,26.27
2022-07-26T10:04:47.352Z,25.67
2022-07-26T10:07:16.358Z,24.65
2022-07-26T10:10:13.494Z,25.25
2022-07-26T10:12:42.345Z,23.88
2022-07-26T10:15:50.628Z,25.08
2022-07-26T10:18:38.070Z,24.55
2022-07-26T10:21:18.694Z,23.98
2022-07-26T10:24:03.603Z,23.00
2022-07-26T10:26:34.651Z,22.20
2022-07-26T10:29:18.607Z,23.75
2022-07-26T10:32:10.995Z,23.92
2022-07-26T10:37:11.049Z,23.45
2022-07-26T10:39:40.248Z,24.80
2022-07-26T10:42:10.652Z,24.70
2022-07-26T10:44:41.616Z,22.65
2022-07-26T10:47:09.942Z,23.85
2022-07-26T10:49:41.027Z,23.02
2022-07-26T10:52:20.574Z,19.88
2022-07-26T10:54:57.918Z,19.30
2022-07-26T10:57:38.496Z,17.50
2022-07-26T11:00:18.897Z,26.58
2022-07-26T11:02:55.672Z,32.58
2022-07-26T11:05:25.903Z,57.50
2022-07-26T11:08:01.170Z,27.30
2022-07-26T11:10:48.298Z,22.83
2022-07-26T11:13:19.130Z,27.48
2022-07-26T11:15:51.631Z,31.00
2022-07-26T11:18:25.830Z,44.17
2022-07-26T11:20:57.389Z,27.38
2022-07-26T11:23:36.167Z,28.42
2022-07-26T11:26:04.524Z,37.70
2022-07-26T11:28:57.497Z,35.97
2022-07-26T11:31:51.341Z,15.05
2022-07-26T11:34:31.294Z,13.00
2022-07-26T11:37:01.608Z,10.90
2022-07-26T11:39:33.341Z,10.02
2022-07-26T11:42:12.702Z,9.48
2022-07-26T11:44:45.454Z,7.90
2022-07-26T11:47:15.069Z,20.83
2022-07-26T11:50:00.072Z,12.55
2022-07-26T11:52:32.691Z,12.52
2022-07-26T11:55:01.510Z,14.55
2022-07-26T11:57:32.001Z,13.25
2022-07-26T12:00:02.082Z,10.55
2022-07-26T12:02:39.566Z,10.43
2022-07-26T12:05:21.951Z,8.85
2022-07-26T12:07:57.488Z,9.13
2022-07-26T12:10:26.872Z,7.75
2022-07-26T12:13:17.448Z,30.65
2022-07-26T12:15:51.664Z,32.78
2022-07-26T12:18:31.461Z,36.03
2022-07-26T12:21:08.909Z,19.77
2022-07-26T12:23:48.287Z,82.80
2022-07-26T12:26:20.845Z,11.18
2022-07-26T12:28:49.254Z,9.57
2022-07-26T12:31:27.890Z,9.10
2022-07-26T12:33:56.998Z,8.95
2022-07-26T12:36:27.627Z,8.57
2022-07-26T12:38:59.688Z,12.10
2022-07-26T12:41:46.273Z,12.65
2022-07-26T12:44:15.029Z,11.85
2022-07-26T12:46:44.344Z,10.27
2022-07-26T12:49:13.127Z,13.85
2022-07-26T12:51:41.475Z,10.57
2022-07-26T12:54:10.074Z,11.10
2022-07-26T12:56:38.476Z,9.05
2022-07-26T12:59:07.695Z,10.38
2022-07-26T13:01:36.419Z,14.65
2022-07-26T13:04:04.923Z,20.85
2022-07-26T13:06:33.195Z,14.98
2022-07-26T13:09:01.355Z,12.73
2022-07-26T13:11:29.857Z,10.68
2022-07-26T13:13:58.183Z,9.38
2022-07-26T13:16:26.567Z,9.52
2022-07-26T13:18:54.820Z,8.27
2022-07-26T13:21:23.365Z,10.80
2022-07-26T13:23:51.629Z,21.30
2022-07-26T13:26:21.803Z,9.88
2022-07-26T13:28:50.968Z,7.97
2022-07-26T13:31:19.353Z,8.18
2022-07-26T13:33:47.720Z,14.77
2022-07-26T13:36:16.156Z,8.35
2022-07-26T13:38:44.335Z,12.48
2022-07-26T13:41:12.801Z,14.63
2022-07-26T13:43:41.056Z,10.93
2022-07-26T13:46:09.291Z,15.90
2022-07-26T13:48:39.483Z,9.65
2022-07-26T13:51:16.509Z,20.42
2022-07-26T13:53:52.282Z,16.85
2022-07-26T13:56:23.903Z,11.15
2022-07-26T13:58:52.117Z,15.23
2022-07-26T14:01:20.556Z,8.73
2022-07-26T14:04:10.168Z,10.65
2022-07-26T14:06:38.887Z,10.23
2022-07-26T14:09:10.772Z,12.90
2022-07-26T14:11:39.996Z,12.80
2022-07-26T14:14:08.989Z,14.98
2022-07-26T14:16:37.860Z,13.63
2022-07-26T14:19:06.381Z,6.00
2022-07-26T14:21:43.641Z,5.93
2022-07-26T14:24:18.984Z,8.45
2022-07-26T14:29:17.314Z,6.78
2022-07-26T14:31:45.530Z,20.75
2022-07-26T14:34:14.422Z,13.30
2022-07-26T14:36:42.925Z,6.03
2022-07-26T14:39:11.283Z,6.70
2022-07-26T14:41:39.484Z,7.35
2022-07-26T14:44:07.960Z,20.52
2022-07-26T14:46:36.996Z,31.67
2022-07-26T14:49:05.411Z,22.40
2022-07-26T14:51:33.751Z,13.77
2022-07-26T14:54:01.906Z,15.27
2022-07-26T14:56:30.240Z,10.63
2022-07-26T14:58:58.373Z,7.53
2022-07-26T15:01:26.851Z,6.57
2022-07-26T15:03:55.191Z,7.93
2022-07-26T15:06:24.091Z,7.70
2022-07-26T15:08:52.609Z,7.10
2022-07-26T15:11:20.764Z,7.03
2022-07-26T15:13:49.191Z,6.40
2022-07-26T15:16:17.615Z,8.18
2022-07-26T15:18:45.959Z,7.80
2022-07-26T15:21:15.931Z,21.05
2022-07-26T15:23:44.552Z,17.20
2022-07-26T15:26:12.743Z,7.72
2022-07-26T15:28:40.939Z,6.00
2022-07-26T15:31:11.657Z,24.48
2022-07-26T15:33:39.845Z,24.20
2022-07-26T15:36:08.274Z,41.90
2022-07-26T15:38:36.484Z,29.40
2022-07-26T15:41:04.865Z,49.20
2022-07-26T15:43:46.767Z,23.38
2022-07-26T15:46:17.153Z,11.10
2022-07-26T15:48:46.619Z,36.22
2022-07-26T15:51:15.746Z,39.55
2022-07-26T15:53:46.466Z,25.23
2022-07-26T15:56:15.772Z,13.15
2022-07-26T15:58:44.962Z,8.38
2022-07-26T16:01:14.326Z,8.15
2022-07-26T16:03:42.674Z,9.48
2022-07-26T16:06:10.955Z,9.60
2022-07-26T16:08:52.738Z,6.68
2022-07-26T16:11:31.765Z,9.82
2022-07-26T16:14:01.472Z,6.45
2022-07-26T16:16:31.092Z,9.02
2022-07-26T16:18:59.324Z,23.98
2022-07-26T16:21:27.561Z,16.60
2022-07-26T16:23:55.910Z,9.93
2022-07-26T16:26:24.118Z,33.15
2022-07-26T16:28:52.250Z,15.18
2022-07-26T16:31:20.865Z,8.13
2022-07-26T16:33:48.948Z,7.20
2022-07-26T16:36:17.400Z,7.70
2022-07-26T16:38:45.590Z,22.98
2022-07-26T16:41:13.920Z,15.27
2022-07-26T16:43:42.276Z,8.30
2022-07-26T16:46:10.547Z,10.45
2022-07-26T16:48:39.056Z,14.05
2022-07-26T16:51:07.326Z,22.17
2022-07-26T16:53:35.578Z,8.52
2022-07-26T16:56:03.964Z,9.07
2022-07-26T16:58:32.199Z,10.38
2022-07-26T17:01:00.586Z,17.33
2022-07-26T17:03:29.230Z,8.63
2022-07-26T17:05:57.428Z,8.32
2022-07-26T17:08:25.732Z,7.35
2022-07-26T17:10:53.961Z,9.48
2022-07-26T17:13:22.254Z,20.10
2022-07-26T17:15:50.683Z,9.98
2022-07-26T17:18:19.005Z,10.80
2022-07-26T17:20:47.256Z,18.02
2022-07-26T17:23:15.564Z,17.02
2022-07-26T17:25:43.838Z,18.73
2022-07-26T17:28:12.096Z,24.90
2022-07-26T17:30:40.775Z,7.70
2022-07-26T17:33:08.919Z,13.57
2022-07-26T17:35:37.449Z,7.63
2022-07-26T17:38:05.887Z,8.65
2022-07-26T17:40:35.999Z,11.30
2022-07-26T17:43:06.899Z,19.80
2022-07-26T17:45:35.134Z,16.85
2022-07-26T17:48:06.394Z,17.20
2022-07-26T17:50:36.919Z,12.60
2022-07-26T17:53:06.477Z,7.88
2022-07-26T17:55:35.177Z,7.38
2022-07-26T17:58:03.494Z,7.30
2022-07-26T18:00:31.865Z,7.32
2022-07-26T18:02:59.961Z,7.10
2022-07-26T18:05:34.216Z,7.40
2022-07-26T18:08:04.774Z,9.80
2022-07-26T18:10:33.536Z,11.02
2022-07-26T18:13:01.786Z,9.55
2022-07-26T18:15:30.050Z,18.08
2022-07-26T18:17:58.437Z,21.80
2022-07-26T18:20:26.686Z,9.55
2022-07-26T18:22:54.887Z,8.43
2022-07-26T18:25:23.245Z,10.38
2022-07-26T18:27:51.357Z,9.93
2022-07-26T18:30:19.600Z,8.38
2022-07-26T18:32:47.980Z,9.10
2022-07-26T18:35:16.329Z,13.80
2022-07-26T18:37:44.553Z,18.52
2022-07-26T18:40:13.077Z,11.07
2022-07-26T18:42:41.378Z,11.65
2022-07-26T18:45:09.830Z,19.33
2022-07-26T18:47:38.162Z,17.50
2022-07-26T18:50:07.298Z,12.95
2022-07-26T18:52:36.494Z,9.93
2022-07-26T18:55:09.596Z,11.43
2022-07-26T18:57:39.063Z,13.82
2022-07-26T19:00:13.902Z,8.45
2022-07-26T19:02:43.333Z,27.58
2022-07-26T19:05:11.973Z,30.60
2022-07-26T19:07:40.433Z,12.90
2022-07-26T19:10:10.771Z,12.45
2022-07-26T19:12:40.139Z,16.02
2022-07-26T19:15:09.241Z,11.27
2022-07-26T19:17:37.771Z,10.35
2022-07-26T19:20:07.519Z,12.07
2022-07-26T19:22:36.269Z,24.33
2022-07-26T19:25:07.056Z,18.60
2022-07-26T19:27:35.450Z,81.70
2022-07-26T19:30:04.790Z,29.35
2022-07-26T19:32:33.739Z,53.38
2022-07-26T19:35:02.634Z,25.83
2022-07-26T19:37:30.804Z,28.98
2022-07-26T19:39:59.287Z,41.70
2022-07-26T19:42:30.251Z,12.07
2022-07-26T19:44:59.061Z,20.15
2022-07-26T19:47:27.253Z,16.95
2022-07-26T19:49:55.650Z,15.10
2022-07-26T19:52:24.179Z,33.28
2022-07-26T19:54:52.441Z,33.97
2022-07-26T19:57:20.940Z,24.50
2022-07-26T19:59:49.521Z,42.95
2022-07-26T20:02:18.214Z,55.60
2022-07-26T20:04:46.607Z,22.33
2022-07-26T20:07:14.984Z,69.40
2022-07-26T20:09:43.201Z,42.30
2022-07-26T20:12:11.528Z,51.55
2022-07-26T20:14:39.773Z,41.70
2022-07-26T20:17:11.939Z,33.60
2022-07-26T20:19:41.871Z,48.58
2022-07-26T20:22:10.860Z,33.00
2022-07-26T20:24:39.549Z,48.40
2022-07-26T20:27:08.256Z,39.00
2022-07-26T20:29:36.582Z,51.03
2022-07-26T20:32:05.108Z,41.90
2022-07-26T20:34:33.356Z,35.42
2022-07-26T20:37:01.735Z,27.40
2022-07-26T20:39:29.859Z,18.40
2022-07-26T20:41:58.294Z,34.17
2022-07-26T20:44:29.436Z,16.20
2022-07-26T20:46:57.797Z,18.38
2022-07-26T20:49:26.201Z,22.40
2022-07-26T20:51:54.596Z,43.83
2022-07-26T20:54:22.915Z,27.13
2022-07-26T20:56:51.198Z,45.08
2022-07-26T20:59:19.608Z,28.90
2022-07-26T21:01:47.886Z,16.75
2022-07-26T21:04:16.292Z,32.40
2022-07-26T21:06:44.576Z,33.60
2022-07-26T21:09:13.182Z,63.47
2022-07-26T21:11:41.740Z,110.70
2022-07-26T21:14:09.983Z,162.10
2022-07-26T21:16:38.561Z,89.43
2022-07-26T21:19:06.908Z,314.52
2022-07-26T21:21:35.278Z,108.22
2022-07-26T21:24:03.624Z,110.70
2022-07-26T21:26:32.016Z,129.98
2022-07-26T21:29:00.275Z,74.20
2022-07-26T21:31:28.499Z,105.43
2022-07-26T21:33:56.788Z,137.13
2022-07-26T21:36:25.108Z,45.80
2022-07-26T21:38:53.350Z,52.15
2022-07-26T21:41:22.170Z,54.40
2022-07-26T21:43:50.396Z,46.90
2022-07-26T21:46:18.646Z,41.42
2022-07-26T21:48:47.092Z,37.10
2022-07-26T21:51:15.419Z,48.80
2022-07-26T21:53:43.872Z,41.85
2022-07-26T21:56:12.334Z,68.22
2022-07-26T21:58:40.528Z,52.70
2022-07-26T22:01:09.617Z,60.97
2022-07-26T22:03:38.658Z,69.15
2022-07-26T22:06:07.869Z,77.82
2022-07-26T22:08:36.789Z,78.65
2022-07-26T22:11:05.869Z,63.15
2022-07-26T22:13:34.513Z,54.92
2022-07-26T22:16:02.821Z,38.53
2022-07-26T22:18:31.149Z,55.92
2022-07-26T22:20:59.451Z,44.53
2022-07-26T22:23:27.933Z,49.95
2022-07-26T22:26:00.297Z,31.40
2022-07-26T22:28:29.999Z,22.38
2022-07-26T22:30:58.612Z,31.58
2022-07-26T22:33:27.096Z,31.27
2022-07-26T22:35:55.475Z,50.72
2022-07-26T22:38:23.710Z,57.00
2022-07-26T22:40:52.498Z,47.45
2022-07-26T22:43:20.952Z,59.30
2022-07-26T22:45:52.253Z,62.08
2022-07-26T22:48:23.577Z,59.88
2022-07-26T22:50:52.144Z,59.38
2022-07-26T22:53:20.645Z,40.83
2022-07-26T22:55:49.082Z,50.90
2022-07-26T22:58:17.462Z,30.70
2022-07-26T23:00:46.099Z,27.90
2022-07-26T23:03:19.754Z,28.40
2022-07-26T23:05:50.439Z,30.70
2022-07-26T23:11:09.301Z,28.55
2022-07-26T23:13:37.813Z,20.33
2022-07-26T23:16:06.833Z,32.05
2022-07-26T23:18:35.605Z,21.67
2022-07-26T23:21:07.131Z,17.83
2022-07-26T23:23:39.483Z,28.90
2022-07-26T23:26:07.918Z,31.42
2022-07-26T23:28:38.781Z,35.83
2022-07-26T23:31:11.715Z,22.48
2022-07-26T23:33:54.697Z,25.50
2022-07-26T23:36:28.142Z,22.23
2022-07-26T23:38:58.089Z,20.17
2022-07-26T23:41:27.062Z,33.42
2022-07-26T23:43:55.626Z,23.88
2022-07-26T23:46:25.740Z,16.67
2022-07-26T23:48:55.443Z,55.55
2022-07-26T23:51:33.051Z,22.77
2022-07-26T23:54:01.364Z,18.95
2022-07-26T23:56:29.798Z,22.98
2022-07-26T23:58:58.115Z,15.32
